sensor_id;sensor_type;location;lat;lon;timestamp;temperature;humidity
75705;DHT22;70013;44.726;37.760;2023-09-19T00:00:18;19.98;42.26
75705;DHT22;70013;44.726;37.760;2023-09-19T00:01:23;19.99;42.26
75705;DHT22;70013;44.726;37.760;2023-09-19T00:02:24;20.11;40.78
75705;DHT22;70013;44.726;37.760;2023-09-19T00:03:26;20.12;41.13
75705;DHT22;70013;44.726;37.760;2023-09-19T00:04:27;20.24;39.99
75705;DHT22;70013;44.726;37.760;2023-09-19T00:05:33;20.25;40.07
75705;DHT22;70013;44.726;37.760;2023-09-19T00:06:38;20.29;39.74
75705;DHT22;70013;44.726;37.760;2023-09-19T00:07:40;20.32;39.63
75705;DHT22;70013;44.726;37.760;2023-09-19T00:08:41;20.31;39.67
75705;DHT22;70013;44.726;37.760;2023-09-19T00:09:45;20.31;39.88
75705;DHT22;70013;44.726;37.760;2023-09-19T00:10:46;20.42;39.27
75705;DHT22;70013;44.726;37.760;2023-09-19T00:11:49;20.50;39.20
75705;DHT22;70013;44.726;37.760;2023-09-19T00:12:51;20.48;39.16
75705;DHT22;70013;44.726;37.760;2023-09-19T00:13:53;20.48;39.30
75705;DHT22;70013;44.726;37.760;2023-09-19T00:14:55;20.47;39.58
75705;DHT22;70013;44.726;37.760;2023-09-19T00:15:57;20.47;39.08
75705;DHT22;70013;44.726;37.760;2023-09-19T00:17:00;20.53;39.05
75705;DHT22;70013;44.726;37.760;2023-09-19T00:18:01;20.50;39.17
75705;DHT22;70013;44.726;37.760;2023-09-19T00:19:02;20.49;39.08
75705;DHT22;70013;44.726;37.760;2023-09-19T00:20:04;20.56;38.91
75705;DHT22;70013;44.726;37.760;2023-09-19T00:21:09;20.55;39.20
75705;DHT22;70013;44.726;37.760;2023-09-19T00:22:11;20.51;39.14
75705;DHT22;70013;44.726;37.760;2023-09-19T00:23:14;20.56;38.81
75705;DHT22;70013;44.726;37.760;2023-09-19T00:24:15;20.56;38.66
75705;DHT22;70013;44.726;37.760;2023-09-19T00:25:18;20.60;38.64
75705;DHT22;70013;44.726;37.760;2023-09-19T00:26:20;20.58;38.78
75705;DHT22;70013;44.726;37.760;2023-09-19T00:27:23;20.59;38.78
75705;DHT22;70013;44.726;37.760;2023-09-19T00:28:24;20.61;38.38
75705;DHT22;70013;44.726;37.760;2023-09-19T00:29:28;20.71;38.02
75705;DHT22;70013;44.726;37.760;2023-09-19T00:30:30;20.71;37.93
75705;DHT22;70013;44.726;37.760;2023-09-19T00:31:31;20.75;37.82
75705;DHT22;70013;44.726;37.760;2023-09-19T00:32:32;20.75;37.84
75705;DHT22;70013;44.726;37.760;2023-09-19T00:33:33;20.86;37.30
75705;DHT22;70013;44.726;37.760;2023-09-19T00:34:35;20.84;37.46
75705;DHT22;70013;44.726;37.760;2023-09-19T00:35:36;20.83;37.57
75705;DHT22;70013;44.726;37.760;2023-09-19T00:36:37;20.85;37.71
75705;DHT22;70013;44.726;37.760;2023-09-19T00:37:44;20.85;37.56
75705;DHT22;70013;44.726;37.760;2023-09-19T00:38:45;20.85;37.49
75705;DHT22;70013;44.726;37.760;2023-09-19T00:39:47;20.81;37.95
75705;DHT22;70013;44.726;37.760;2023-09-19T00:40:50;20.85;37.48
75705;DHT22;70013;44.726;37.760;2023-09-19T00:41:52;20.84;37.32
75705;DHT22;70013;44.726;37.760;2023-09-19T00:42:53;20.86;37.52
75705;DHT22;70013;44.726;37.760;2023-09-19T00:43:58;20.88;37.37
75705;DHT22;70013;44.726;37.760;2023-09-19T00:45:00;20.86;37.18
75705;DHT22;70013;44.726;37.760;2023-09-19T00:46:04;20.84;37.62
75705;DHT22;70013;44.726;37.760;2023-09-19T00:47:07;20.83;37.55
75705;DHT22;70013;44.726;37.760;2023-09-19T00:48:10;20.80;37.90
75705;DHT22;70013;44.726;37.760;2023-09-19T00:49:11;20.79;37.40
75705;DHT22;70013;44.726;37.760;2023-09-19T00:50:13;20.80;37.64
75705;DHT22;70013;44.726;37.760;2023-09-19T00:51:15;20.79;37.54
75705;DHT22;70013;44.726;37.760;2023-09-19T00:52:20;20.77;37.81
75705;DHT22;70013;44.726;37.760;2023-09-19T00:53:23;20.74;37.89
75705;DHT22;70013;44.726;37.760;2023-09-19T00:54:24;20.74;37.98
75705;DHT22;70013;44.726;37.760;2023-09-19T00:55:26;20.75;38.11
75705;DHT22;70013;44.726;37.760;2023-09-19T00:56:30;20.75;37.82
75705;DHT22;70013;44.726;37.760;2023-09-19T00:57:32;20.74;37.74
75705;DHT22;70013;44.726;37.760;2023-09-19T00:58:34;20.75;37.64
75705;DHT22;70013;44.726;37.760;2023-09-19T00:59:36;20.75;37.78
75705;DHT22;70013;44.726;37.760;2023-09-19T01:00:37;20.75;37.70
75705;DHT22;70013;44.726;37.760;2023-09-19T01:01:39;20.74;37.96
75705;DHT22;70013;44.726;37.760;2023-09-19T01:02:44;20.77;37.64
75705;DHT22;70013;44.726;37.760;2023-09-19T01:03:46;20.76;38.19
75705;DHT22;70013;44.726;37.760;2023-09-19T01:04:48;20.75;37.86
75705;DHT22;70013;44.726;37.760;2023-09-19T01:05:49;20.75;37.76
75705;DHT22;70013;44.726;37.760;2023-09-19T01:06:50;20.73;37.60
75705;DHT22;70013;44.726;37.760;2023-09-19T01:07:54;20.74;37.88
75705;DHT22;70013;44.726;37.760;2023-09-19T01:08:56;20.71;38.18
75705;DHT22;70013;44.726;37.760;2023-09-19T01:09:57;20.72;38.18
75705;DHT22;70013;44.726;37.760;2023-09-19T01:11:10;20.71;38.14
75705;DHT22;70013;44.726;37.760;2023-09-19T01:12:17;20.70;38.07
75705;DHT22;70013;44.726;37.760;2023-09-19T01:14:38;20.75;37.92
75705;DHT22;70013;44.726;37.760;2023-09-19T01:17:05;20.76;38.13
75705;DHT22;70013;44.726;37.760;2023-09-19T01:19:24;20.71;38.37
75705;DHT22;70013;44.726;37.760;2023-09-19T01:20:33;20.68;38.75
75705;DHT22;70013;44.726;37.760;2023-09-19T01:21:54;20.66;38.67
75705;DHT22;70013;44.726;37.760;2023-09-19T01:23:47;20.63;38.82
75705;DHT22;70013;44.726;37.760;2023-09-19T01:24:45;20.58;39.01
75705;DHT22;70013;44.726;37.760;2023-09-19T01:30:40;20.59;39.17
75705;DHT22;70013;44.726;37.760;2023-09-19T01:31:44;20.58;39.22
75705;DHT22;70013;44.726;37.760;2023-09-19T01:32:45;20.56;39.21
75705;DHT22;70013;44.726;37.760;2023-09-19T01:33:53;20.55;39.02
75705;DHT22;70013;44.726;37.760;2023-09-19T01:34:57;20.51;39.14
75705;DHT22;70013;44.726;37.760;2023-09-19T01:36:05;20.53;38.91
75705;DHT22;70013;44.726;37.760;2023-09-19T01:37:06;20.54;38.91
75705;DHT22;70013;44.726;37.760;2023-09-19T01:38:07;20.57;39.03
75705;DHT22;70013;44.726;37.760;2023-09-19T01:39:12;20.61;38.46
75705;DHT22;70013;44.726;37.760;2023-09-19T01:40:15;20.63;38.49
75705;DHT22;70013;44.726;37.760;2023-09-19T01:41:23;20.63;38.94
75705;DHT22;70013;44.726;37.760;2023-09-19T01:43:46;20.60;38.82
75705;DHT22;70013;44.726;37.760;2023-09-19T01:44:52;20.59;38.79
75705;DHT22;70013;44.726;37.760;2023-09-19T01:47:01;20.60;38.78
75705;DHT22;70013;44.726;37.760;2023-09-19T01:51:42;20.58;38.66
75705;DHT22;70013;44.726;37.760;2023-09-19T01:52:48;20.56;38.84
75705;DHT22;70013;44.726;37.760;2023-09-19T01:54:55;20.58;38.49
75705;DHT22;70013;44.726;37.760;2023-09-19T01:55:57;20.57;38.57
75705;DHT22;70013;44.726;37.760;2023-09-19T01:57:02;20.56;38.57
75705;DHT22;70013;44.726;37.760;2023-09-19T01:58:15;20.54;38.75
75705;DHT22;70013;44.726;37.760;2023-09-19T01:59:21;20.56;38.72
75705;DHT22;70013;44.726;37.760;2023-09-19T02:00:24;20.56;38.88
75705;DHT22;70013;44.726;37.760;2023-09-19T02:01:27;20.55;38.85
75705;DHT22;70013;44.726;37.760;2023-09-19T02:02:28;20.54;38.95
75705;DHT22;70013;44.726;37.760;2023-09-19T02:03:30;20.49;38.78
75705;DHT22;70013;44.726;37.760;2023-09-19T02:04:32;20.47;39.07
75705;DHT22;70013;44.726;37.760;2023-09-19T02:05:33;20.45;39.54
75705;DHT22;70013;44.726;37.760;2023-09-19T02:06:35;20.41;39.60
75705;DHT22;70013;44.726;37.760;2023-09-19T02:07:36;20.39;39.37
75705;DHT22;70013;44.726;37.760;2023-09-19T02:08:38;20.35;39.63
75705;DHT22;70013;44.726;37.760;2023-09-19T02:09:40;20.36;39.95
75705;DHT22;70013;44.726;37.760;2023-09-19T02:10:43;20.32;39.85
75705;DHT22;70013;44.726;37.760;2023-09-19T02:11:49;20.32;39.55
75705;DHT22;70013;44.726;37.760;2023-09-19T02:12:51;20.32;39.81
75705;DHT22;70013;44.726;37.760;2023-09-19T02:13:52;20.30;39.45
75705;DHT22;70013;44.726;37.760;2023-09-19T02:14:55;20.30;39.53
75705;DHT22;70013;44.726;37.760;2023-09-19T02:15:59;20.29;39.26
75705;DHT22;70013;44.726;37.760;2023-09-19T02:17:00;20.30;39.43
75705;DHT22;70013;44.726;37.760;2023-09-19T02:18:01;20.31;39.20
75705;DHT22;70013;44.726;37.760;2023-09-19T02:19:03;20.30;39.41
75705;DHT22;70013;44.726;37.760;2023-09-19T02:20:08;20.35;39.02
75705;DHT22;70013;44.726;37.760;2023-09-19T02:21:11;20.32;39.41
75705;DHT22;70013;44.726;37.760;2023-09-19T02:22:13;20.30;39.62
75705;DHT22;70013;44.726;37.760;2023-09-19T02:23:15;20.29;39.94
75705;DHT22;70013;44.726;37.760;2023-09-19T02:24:16;20.26;39.74
75705;DHT22;70013;44.726;37.760;2023-09-19T02:25:17;20.25;39.77
75705;DHT22;70013;44.726;37.760;2023-09-19T02:26:20;20.24;39.39
75705;DHT22;70013;44.726;37.760;2023-09-19T02:27:22;20.22;39.54
75705;DHT22;70013;44.726;37.760;2023-09-19T02:28:23;20.25;39.62
75705;DHT22;70013;44.726;37.760;2023-09-19T02:29:25;20.21;39.69
75705;DHT22;70013;44.726;37.760;2023-09-19T02:30:27;20.22;39.68
75705;DHT22;70013;44.726;37.760;2023-09-19T02:31:30;20.22;39.78
75705;DHT22;70013;44.726;37.760;2023-09-19T02:32:32;20.28;39.14
75705;DHT22;70013;44.726;37.760;2023-09-19T02:33:36;20.30;39.11
75705;DHT22;70013;44.726;37.760;2023-09-19T02:34:38;20.32;39.21
75705;DHT22;70013;44.726;37.760;2023-09-19T02:35:40;20.30;39.41
75705;DHT22;70013;44.726;37.760;2023-09-19T02:36:41;20.30;39.59
75705;DHT22;70013;44.726;37.760;2023-09-19T02:37:45;20.25;39.75
75705;DHT22;70013;44.726;37.760;2023-09-19T02:38:46;20.25;39.65
75705;DHT22;70013;44.726;37.760;2023-09-19T02:39:47;20.28;39.34
75705;DHT22;70013;44.726;37.760;2023-09-19T02:40:48;20.28;39.49
75705;DHT22;70013;44.726;37.760;2023-09-19T02:41:50;20.27;39.55
75705;DHT22;70013;44.726;37.760;2023-09-19T02:42:55;20.26;39.79
75705;DHT22;70013;44.726;37.760;2023-09-19T02:43:58;20.26;40.13
75705;DHT22;70013;44.726;37.760;2023-09-19T02:45:02;20.26;40.03
75705;DHT22;70013;44.726;37.760;2023-09-19T02:46:04;20.25;40.23
75705;DHT22;70013;44.726;37.760;2023-09-19T02:47:06;20.29;39.64
75705;DHT22;70013;44.726;37.760;2023-09-19T02:48:08;20.34;39.50
75705;DHT22;70013;44.726;37.760;2023-09-19T02:49:09;20.31;40.30
75705;DHT22;70013;44.726;37.760;2023-09-19T02:50:12;20.29;39.91
75705;DHT22;70013;44.726;37.760;2023-09-19T02:51:14;20.33;39.94
75705;DHT22;70013;44.726;37.760;2023-09-19T02:52:15;20.32;39.76
75705;DHT22;70013;44.726;37.760;2023-09-19T02:53:17;20.34;39.81
75705;DHT22;70013;44.726;37.760;2023-09-19T02:54:20;20.33;40.01
75705;DHT22;70013;44.726;37.760;2023-09-19T02:55:21;20.32;39.33
75705;DHT22;70013;44.726;37.760;2023-09-19T02:56:24;20.44;38.94
75705;DHT22;70013;44.726;37.760;2023-09-19T02:57:26;20.41;39.26
75705;DHT22;70013;44.726;37.760;2023-09-19T02:58:28;20.39;39.04
75705;DHT22;70013;44.726;37.760;2023-09-19T02:59:31;20.36;39.45
75705;DHT22;70013;44.726;37.760;2023-09-19T03:00:33;20.37;39.33
75705;DHT22;70013;44.726;37.760;2023-09-19T03:01:36;20.35;39.52
75705;DHT22;70013;44.726;37.760;2023-09-19T03:02:41;20.36;39.06
75705;DHT22;70013;44.726;37.760;2023-09-19T03:03:42;20.39;39.01
75705;DHT22;70013;44.726;37.760;2023-09-19T03:04:44;20.37;38.96
75705;DHT22;70013;44.726;37.760;2023-09-19T03:05:47;20.40;39.01
75705;DHT22;70013;44.726;37.760;2023-09-19T03:06:50;20.40;39.07
75705;DHT22;70013;44.726;37.760;2023-09-19T03:07:53;20.42;38.65
75705;DHT22;70013;44.726;37.760;2023-09-19T03:08:55;20.44;38.87
75705;DHT22;70013;44.726;37.760;2023-09-19T03:09:57;20.49;38.42
75705;DHT22;70013;44.726;37.760;2023-09-19T03:10:59;20.50;38.32
75705;DHT22;70013;44.726;37.760;2023-09-19T03:12:02;20.50;38.49
75705;DHT22;70013;44.726;37.760;2023-09-19T03:13:05;20.49;38.65
75705;DHT22;70013;44.726;37.760;2023-09-19T03:14:10;20.48;38.41
75705;DHT22;70013;44.726;37.760;2023-09-19T03:15:12;20.48;38.08
75705;DHT22;70013;44.726;37.760;2023-09-19T03:16:17;20.50;38.39
75705;DHT22;70013;44.726;37.760;2023-09-19T03:17:20;20.54;39.25
75705;DHT22;70013;44.726;37.760;2023-09-19T03:18:22;20.62;38.11
75705;DHT22;70013;44.726;37.760;2023-09-19T03:19:24;20.68;37.59
75705;DHT22;70013;44.726;37.760;2023-09-19T03:20:28;20.74;37.49
75705;DHT22;70013;44.726;37.760;2023-09-19T03:21:29;20.72;37.77
75705;DHT22;70013;44.726;37.760;2023-09-19T03:22:31;20.74;37.55
75705;DHT22;70013;44.726;37.760;2023-09-19T03:23:34;20.78;37.35
75705;DHT22;70013;44.726;37.760;2023-09-19T03:24:35;20.78;37.40
75705;DHT22;70013;44.726;37.760;2023-09-19T03:25:38;20.78;37.30
75705;DHT22;70013;44.726;37.760;2023-09-19T03:26:40;20.78;37.46
75705;DHT22;70013;44.726;37.760;2023-09-19T03:27:42;20.76;37.28
75705;DHT22;70013;44.726;37.760;2023-09-19T03:28:44;20.75;37.62
75705;DHT22;70013;44.726;37.760;2023-09-19T03:29:47;20.75;37.51
75705;DHT22;70013;44.726;37.760;2023-09-19T03:31:01;20.73;37.53
75705;DHT22;70013;44.726;37.760;2023-09-19T03:32:04;20.74;37.24
75705;DHT22;70013;44.726;37.760;2023-09-19T03:33:06;20.75;37.09
75705;DHT22;70013;44.726;37.760;2023-09-19T03:34:09;20.76;37.41
75705;DHT22;70013;44.726;37.760;2023-09-19T03:35:11;20.77;37.43
75705;DHT22;70013;44.726;37.760;2023-09-19T03:36:15;20.78;37.21
75705;DHT22;70013;44.726;37.760;2023-09-19T03:37:17;20.79;37.24
75705;DHT22;70013;44.726;37.760;2023-09-19T03:38:20;20.81;37.31
75705;DHT22;70013;44.726;37.760;2023-09-19T03:39:22;20.85;37.28
75705;DHT22;70013;44.726;37.760;2023-09-19T03:40:24;20.90;37.37
75705;DHT22;70013;44.726;37.760;2023-09-19T03:41:26;20.93;37.43
75705;DHT22;70013;44.726;37.760;2023-09-19T03:42:28;20.99;36.63
75705;DHT22;70013;44.726;37.760;2023-09-19T03:43:31;21.01;37.00
75705;DHT22;70013;44.726;37.760;2023-09-19T03:44:32;21.03;36.71
75705;DHT22;70013;44.726;37.760;2023-09-19T03:45:34;21.07;36.85
75705;DHT22;70013;44.726;37.760;2023-09-19T03:46:35;21.10;36.63
75705;DHT22;70013;44.726;37.760;2023-09-19T03:47:38;21.18;36.24
75705;DHT22;70013;44.726;37.760;2023-09-19T03:48:39;21.24;36.45
75705;DHT22;70013;44.726;37.760;2023-09-19T03:49:40;21.29;36.20
75705;DHT22;70013;44.726;37.760;2023-09-19T03:50:41;21.31;36.18
75705;DHT22;70013;44.726;37.760;2023-09-19T03:51:45;21.40;35.98
75705;DHT22;70013;44.726;37.760;2023-09-19T03:52:46;21.47;35.95
75705;DHT22;70013;44.726;37.760;2023-09-19T03:53:47;21.55;35.79
75705;DHT22;70013;44.726;37.760;2023-09-19T03:54:50;21.63;35.32
75705;DHT22;70013;44.726;37.760;2023-09-19T03:55:51;21.74;35.47
75705;DHT22;70013;44.726;37.760;2023-09-19T03:56:53;21.89;35.36
75705;DHT22;70013;44.726;37.760;2023-09-19T03:57:54;22.09;34.76
75705;DHT22;70013;44.726;37.760;2023-09-19T03:58:56;22.24;34.38
75705;DHT22;70013;44.726;37.760;2023-09-19T03:59:57;22.49;33.93
75705;DHT22;70013;44.726;37.760;2023-09-19T04:00:58;22.83;33.26
75705;DHT22;70013;44.726;37.760;2023-09-19T04:02:02;22.87;32.67
75705;DHT22;70013;44.726;37.760;2023-09-19T04:03:04;22.83;32.55
75705;DHT22;70013;44.726;37.760;2023-09-19T04:04:07;22.93;32.85
75705;DHT22;70013;44.726;37.760;2023-09-19T04:05:13;23.01;32.49
75705;DHT22;70013;44.726;37.760;2023-09-19T04:06:14;23.12;32.41
75705;DHT22;70013;44.726;37.760;2023-09-19T04:07:17;23.23;31.99
75705;DHT22;70013;44.726;37.760;2023-09-19T04:08:18;23.45;31.68
75705;DHT22;70013;44.726;37.760;2023-09-19T04:09:19;23.62;33.42
75705;DHT22;70013;44.726;37.760;2023-09-19T04:10:20;23.87;34.61
75705;DHT22;70013;44.726;37.760;2023-09-19T04:11:22;24.05;32.12
75705;DHT22;70013;44.726;37.760;2023-09-19T04:12:23;24.05;31.04
75705;DHT22;70013;44.726;37.760;2023-09-19T04:13:25;24.26;30.13
75705;DHT22;70013;44.726;37.760;2023-09-19T04:14:26;25.08;30.74
75705;DHT22;70013;44.726;37.760;2023-09-19T04:15:28;25.32;28.18
75705;DHT22;70013;44.726;37.760;2023-09-19T04:16:29;25.60;27.68
75705;DHT22;70013;44.726;37.760;2023-09-19T04:17:31;26.10;26.23
75705;DHT22;70013;44.726;37.760;2023-09-19T04:18:34;26.43;25.11
75705;DHT22;70013;44.726;37.760;2023-09-19T04:19:39;27.25;25.02
75705;DHT22;70013;44.726;37.760;2023-09-19T04:20:47;27.79;23.24
75705;DHT22;70013;44.726;37.760;2023-09-19T04:21:49;27.93;24.70
75705;DHT22;70013;44.726;37.760;2023-09-19T04:22:50;27.84;22.56
75705;DHT22;70013;44.726;37.760;2023-09-19T04:23:52;28.06;21.96
75705;DHT22;70013;44.726;37.760;2023-09-19T04:24:53;28.70;22.18
75705;DHT22;70013;44.726;37.760;2023-09-19T04:25:54;29.22;22.69
75705;DHT22;70013;44.726;37.760;2023-09-19T04:26:56;29.97;20.37
75705;DHT22;70013;44.726;37.760;2023-09-19T04:27:59;29.62;19.54
75705;DHT22;70013;44.726;37.760;2023-09-19T04:29:00;29.86;19.93
75705;DHT22;70013;44.726;37.760;2023-09-19T04:30:02;30.05;19.65
75705;DHT22;70013;44.726;37.760;2023-09-19T04:31:05;30.38;17.95
75705;DHT22;70013;44.726;37.760;2023-09-19T04:32:06;30.42;19.54
75705;DHT22;70013;44.726;37.760;2023-09-19T04:33:08;31.08;18.47
75705;DHT22;70013;44.726;37.760;2023-09-19T04:34:09;31.83;18.40
75705;DHT22;70013;44.726;37.760;2023-09-19T04:35:11;32.56;17.84
75705;DHT22;70013;44.726;37.760;2023-09-19T04:36:12;33.15;15.92
75705;DHT22;70013;44.726;37.760;2023-09-19T04:37:14;33.41;15.00
75705;DHT22;70013;44.726;37.760;2023-09-19T04:38:16;33.96;12.92
75705;DHT22;70013;44.726;37.760;2023-09-19T04:39:17;33.28;14.76
75705;DHT22;70013;44.726;37.760;2023-09-19T04:40:18;33.68;13.01
75705;DHT22;70013;44.726;37.760;2023-09-19T04:41:20;33.49;14.03
75705;DHT22;70013;44.726;37.760;2023-09-19T04:42:23;33.95;12.62
75705;DHT22;70013;44.726;37.760;2023-09-19T04:43:26;33.59;13.06
75705;DHT22;70013;44.726;37.760;2023-09-19T04:44:28;34.20;13.49
75705;DHT22;70013;44.726;37.760;2023-09-19T04:45:29;34.12;12.80
75705;DHT22;70013;44.726;37.760;2023-09-19T04:46:30;33.88;12.60
75705;DHT22;70013;44.726;37.760;2023-09-19T04:47:32;34.65;12.07
75705;DHT22;70013;44.726;37.760;2023-09-19T04:48:33;34.88;11.78
75705;DHT22;70013;44.726;37.760;2023-09-19T04:49:35;34.89;11.97
75705;DHT22;70013;44.726;37.760;2023-09-19T04:50:37;35.66;11.59
75705;DHT22;70013;44.726;37.760;2023-09-19T04:51:39;35.06;11.80
75705;DHT22;70013;44.726;37.760;2023-09-19T04:52:41;34.53;11.52
75705;DHT22;70013;44.726;37.760;2023-09-19T04:53:45;34.27;11.95
75705;DHT22;70013;44.726;37.760;2023-09-19T04:54:47;34.45;12.22
75705;DHT22;70013;44.726;37.760;2023-09-19T04:55:52;33.88;11.66
75705;DHT22;70013;44.726;37.760;2023-09-19T04:56:53;33.25;13.35
75705;DHT22;70013;44.726;37.760;2023-09-19T04:57:55;33.93;12.67
75705;DHT22;70013;44.726;37.760;2023-09-19T04:58:56;34.60;11.55
75705;DHT22;70013;44.726;37.760;2023-09-19T04:59:59;34.09;12.70
75705;DHT22;70013;44.726;37.760;2023-09-19T05:01:01;34.62;12.14
75705;DHT22;70013;44.726;37.760;2023-09-19T05:02:03;34.65;11.79
75705;DHT22;70013;44.726;37.760;2023-09-19T05:03:04;34.46;12.33
75705;DHT22;70013;44.726;37.760;2023-09-19T05:04:07;34.27;12.84
75705;DHT22;70013;44.726;37.760;2023-09-19T05:05:08;34.66;11.91
75705;DHT22;70013;44.726;37.760;2023-09-19T05:06:11;33.93;12.67
75705;DHT22;70013;44.726;37.760;2023-09-19T05:07:13;33.26;13.82
75705;DHT22;70013;44.726;37.760;2023-09-19T05:08:14;33.37;13.70
75705;DHT22;70013;44.726;37.760;2023-09-19T05:09:16;33.86;13.64
75705;DHT22;70013;44.726;37.760;2023-09-19T05:10:21;33.95;12.86
75705;DHT22;70013;44.726;37.760;2023-09-19T05:11:22;34.33;12.55
75705;DHT22;70013;44.726;37.760;2023-09-19T05:12:28;34.79;12.39
75705;DHT22;70013;44.726;37.760;2023-09-19T05:13:29;33.37;13.34
75705;DHT22;70013;44.726;37.760;2023-09-19T05:14:31;33.55;13.79
75705;DHT22;70013;44.726;37.760;2023-09-19T05:15:33;33.29;13.53
75705;DHT22;70013;44.726;37.760;2023-09-19T05:16:34;32.76;13.50
75705;DHT22;70013;44.726;37.760;2023-09-19T05:17:36;32.35;14.14
75705;DHT22;70013;44.726;37.760;2023-09-19T05:18:38;32.61;13.88
75705;DHT22;70013;44.726;37.760;2023-09-19T05:19:39;33.96;12.65
75705;DHT22;70013;44.726;37.760;2023-09-19T05:20:40;33.79;12.56
75705;DHT22;70013;44.726;37.760;2023-09-19T05:21:43;33.79;12.47
75705;DHT22;70013;44.726;37.760;2023-09-19T05:22:44;33.70;12.81
75705;DHT22;70013;44.726;37.760;2023-09-19T05:23:47;34.03;12.46
75705;DHT22;70013;44.726;37.760;2023-09-19T05:24:48;34.46;12.65
75705;DHT22;70013;44.726;37.760;2023-09-19T05:25:50;34.94;11.93
75705;DHT22;70013;44.726;37.760;2023-09-19T05:26:52;35.30;11.74
75705;DHT22;70013;44.726;37.760;2023-09-19T05:27:53;36.00;10.82
75705;DHT22;70013;44.726;37.760;2023-09-19T05:28:55;35.79;10.93
75705;DHT22;70013;44.726;37.760;2023-09-19T05:29:56;35.30;11.17
75705;DHT22;70013;44.726;37.760;2023-09-19T05:31:00;35.93;10.94
75705;DHT22;70013;44.726;37.760;2023-09-19T05:32:02;35.30;11.26
75705;DHT22;70013;44.726;37.760;2023-09-19T05:33:05;35.40;10.53
75705;DHT22;70013;44.726;37.760;2023-09-19T05:34:06;34.38;12.14
75705;DHT22;70013;44.726;37.760;2023-09-19T05:35:07;35.41;11.77
75705;DHT22;70013;44.726;37.760;2023-09-19T05:36:10;36.33;10.37
75705;DHT22;70013;44.726;37.760;2023-09-19T05:37:13;36.54;10.01
75705;DHT22;70013;44.726;37.760;2023-09-19T05:38:17;36.06;10.59
75705;DHT22;70013;44.726;37.760;2023-09-19T05:39:21;35.49;11.24
75705;DHT22;70013;44.726;37.760;2023-09-19T05:40:24;35.56;11.30
75705;DHT22;70013;44.726;37.760;2023-09-19T05:41:26;35.35;11.07
75705;DHT22;70013;44.726;37.760;2023-09-19T05:42:28;35.21;11.66
75705;DHT22;70013;44.726;37.760;2023-09-19T05:43:29;35.54;11.09
75705;DHT22;70013;44.726;37.760;2023-09-19T05:44:30;35.60;11.56
75705;DHT22;70013;44.726;37.760;2023-09-19T05:45:35;34.20;12.68
75705;DHT22;70013;44.726;37.760;2023-09-19T05:46:37;34.07;13.00
75705;DHT22;70013;44.726;37.760;2023-09-19T05:47:42;35.07;11.81
75705;DHT22;70013;44.726;37.760;2023-09-19T05:48:44;35.70;11.82
75705;DHT22;70013;44.726;37.760;2023-09-19T05:49:45;36.34;10.83
75705;DHT22;70013;44.726;37.760;2023-09-19T05:50:47;36.31;10.41
75705;DHT22;70013;44.726;37.760;2023-09-19T05:51:49;36.28;10.67
75705;DHT22;70013;44.726;37.760;2023-09-19T05:52:52;37.06;9.88
75705;DHT22;70013;44.726;37.760;2023-09-19T05:53:53;36.97;10.84
